Sierra City, California
Current Conditions -  °F | °C
As of 2:52 PM on Thursday 18 Dec 2014 (Local Time) from KBLU Reporting Station
Broken Clouds Broken Clouds  
Wind Chill: 36°   Ceiling: 10000
Heat Index: 40°   Visibility: 10mi
Dew Point: 33°   Wind: 6mph
Humidity: 77%   Direction: 150°SSE
Pressure: 30.14"   Gusts: NA
Location:  39.57°N, 120.64°W
Report Text: KBLU 182252Z AUTO 15005KT 10SM SCT010 BKN100 04/01 A3014 RMK AO2 SLP204 T00440006
Loading
Personal Weather Stations






























Interactive Weather Map New forecast layout! Learn more

10-Day Weather Forecast

Advertisements
Track Severe Weather on mobile